createdAt,value
2017-12-21T00:00:17.912Z,29.9
2017-12-21T00:01:19.860Z,31.2
2017-12-21T00:02:21.893Z,30.9
2017-12-21T00:03:23.858Z,34.9
2017-12-21T00:04:25.851Z,32.0
2017-12-21T00:05:27.768Z,32.3
2017-12-21T00:06:29.728Z,26.8
2017-12-21T00:07:31.673Z,26.6
2017-12-21T00:08:33.588Z,26.2
2017-12-21T00:09:35.548Z,25.4
2017-12-21T00:10:37.502Z,26.5
2017-12-21T00:11:39.398Z,24.9
2017-12-21T00:12:41.529Z,24.3
2017-12-21T00:13:43.496Z,24.8
2017-12-21T00:14:46.457Z,24.7
2017-12-21T00:15:49.299Z,24.1
2017-12-21T00:16:51.853Z,23.9
2017-12-21T00:17:54.293Z,22.7
2017-12-21T00:18:58.839Z,22.8
2017-12-21T00:20:00.769Z,24.3
2017-12-21T00:21:02.737Z,24.1
2017-12-21T00:22:04.694Z,25.5
2017-12-21T00:23:06.695Z,28.5
2017-12-21T00:24:08.749Z,23.6
2017-12-21T00:25:13.441Z,23.5
2017-12-21T00:26:15.349Z,24.2
2017-12-21T00:27:17.340Z,25.7
2017-12-21T00:28:19.367Z,25.5
2017-12-21T00:29:21.405Z,26.4
2017-12-21T00:30:23.325Z,24.7
2017-12-21T00:31:31.877Z,24.1
2017-12-21T00:32:33.791Z,27.2
2017-12-21T00:33:35.805Z,23.5
2017-12-21T00:34:37.786Z,24.1
2017-12-21T00:35:39.773Z,23.8
2017-12-21T00:36:41.778Z,23.6
2017-12-21T00:37:43.700Z,25.2
2017-12-21T00:38:48.428Z,23.9
2017-12-21T00:39:57.343Z,23.6
2017-12-21T00:40:59.851Z,24.8
2017-12-21T00:42:01.851Z,21.6
2017-12-21T00:43:04.409Z,24.0
2017-12-21T00:44:06.376Z,22.7
2017-12-21T00:45:08.358Z,21.4
2017-12-21T00:46:10.351Z,21.8
2017-12-21T00:47:14.832Z,21.3
2017-12-21T00:48:16.877Z,21.2
2017-12-21T00:49:19.006Z,21.0
2017-12-21T00:50:20.964Z,21.8
2017-12-21T00:51:24.049Z,21.4
2017-12-21T00:52:26.050Z,20.8
2017-12-21T00:53:28.119Z,20.9
2017-12-21T00:54:30.456Z,20.4
2017-12-21T00:55:32.530Z,20.9
2017-12-21T00:56:34.586Z,19.9
2017-12-21T00:57:37.452Z,19.6
2017-12-21T00:58:39.488Z,21.1
2017-12-21T00:59:41.488Z,20.3
2017-12-21T01:00:43.531Z,18.9
2017-12-21T01:01:45.611Z,18.8
2017-12-21T01:02:47.686Z,19.4
2017-12-21T01:03:49.767Z,18.1
2017-12-21T01:04:51.861Z,18.3
2017-12-21T01:05:53.970Z,18.3
2017-12-21T01:06:55.980Z,18.3
2017-12-21T01:07:58.082Z,21.1
2017-12-21T01:09:00.510Z,18.7
2017-12-21T01:10:02.591Z,19.6
2017-12-21T01:11:04.701Z,18.8
2017-12-21T01:12:06.783Z,18.7
2017-12-21T01:13:08.955Z,19.9
2017-12-21T01:14:11.054Z,19.1
2017-12-21T01:15:13.209Z,20.2
2017-12-21T01:16:15.184Z,19.9
2017-12-21T01:17:17.219Z,19.7
2017-12-21T01:18:19.892Z,19.3
2017-12-21T01:19:22.001Z,19.4
2017-12-21T01:20:23.926Z,20.6
2017-12-21T01:21:25.945Z,20.2
2017-12-21T01:22:27.855Z,19.4
2017-12-21T01:23:29.827Z,20.4
2017-12-21T01:24:31.851Z,20.4
2017-12-21T01:25:36.407Z,20.8
2017-12-21T01:26:38.409Z,18.6
2017-12-21T01:27:40.447Z,20.9
2017-12-21T01:28:43.337Z,20.4
2017-12-21T01:29:45.381Z,20.7
2017-12-21T01:30:47.373Z,19.8
2017-12-21T01:31:49.308Z,21.1
2017-12-21T01:32:51.288Z,20.6
2017-12-21T01:33:53.863Z,22.2
2017-12-21T01:34:56.494Z,21.1
2017-12-21T01:35:59.367Z,21.6
2017-12-21T01:37:01.420Z,21.9
2017-12-21T01:38:03.355Z,21.6
2017-12-21T01:39:05.408Z,24.8
2017-12-21T01:40:07.423Z,23.5
2017-12-21T01:41:09.480Z,22.7
2017-12-21T01:42:11.435Z,24.0
2017-12-21T01:43:14.444Z,24.3
2017-12-21T01:44:16.407Z,23.0
2017-12-21T01:45:18.416Z,25.3
2017-12-21T01:46:20.453Z,25.3
2017-12-21T01:47:23.434Z,24.5
2017-12-21T01:48:25.458Z,23.1
2017-12-21T01:49:27.542Z,23.9
2017-12-21T01:50:36.562Z,24.5
2017-12-21T01:51:38.746Z,23.4
2017-12-21T01:52:41.075Z,23.7
2017-12-21T01:53:43.244Z,24.1
2017-12-21T01:54:45.462Z,23.7
2017-12-21T01:55:47.645Z,24.3
2017-12-21T01:56:49.799Z,25.0
2017-12-21T01:57:52.079Z,24.4
2017-12-21T01:58:54.217Z,24.7
2017-12-21T01:59:56.372Z,25.4
2017-12-21T02:00:58.608Z,23.6
2017-12-21T02:02:03.749Z,24.3
2017-12-21T02:03:05.951Z,23.5
2017-12-21T02:04:08.114Z,23.4
2017-12-21T02:05:10.233Z,22.5
2017-12-21T02:06:12.367Z,24.5
2017-12-21T02:07:15.039Z,23.1
2017-12-21T02:08:17.951Z,23.6
2017-12-21T02:09:21.057Z,23.9
2017-12-21T02:10:23.170Z,22.7
2017-12-21T02:11:25.423Z,20.5
2017-12-21T02:12:27.605Z,23.1
2017-12-21T02:13:29.590Z,25.7
2017-12-21T02:14:34.464Z,26.1
2017-12-21T02:15:37.369Z,27.7
2017-12-21T02:16:39.382Z,26.1
2017-12-21T02:17:41.914Z,27.8
2017-12-21T02:18:44.451Z,28.8
2017-12-21T02:19:46.434Z,29.2
2017-12-21T02:20:48.515Z,30.3
2017-12-21T02:21:50.579Z,29.0
2017-12-21T02:22:52.527Z,30.6
2017-12-21T02:23:54.610Z,27.5
2017-12-21T02:24:56.653Z,31.6
2017-12-21T02:25:59.521Z,28.6
2017-12-21T02:27:01.700Z,32.8
2017-12-21T02:28:04.075Z,33.8
2017-12-21T02:29:06.225Z,36.6
2017-12-21T02:30:08.492Z,38.6
2017-12-21T02:31:10.883Z,37.2
2017-12-21T02:32:13.711Z,37.0
2017-12-21T02:33:15.933Z,40.0
2017-12-21T02:34:18.426Z,37.4
2017-12-21T02:35:20.738Z,38.8
2017-12-21T02:36:22.934Z,37.7
2017-12-21T02:37:25.362Z,36.6
2017-12-21T02:38:27.861Z,41.2
2017-12-21T02:39:30.630Z,40.9
2017-12-21T02:40:32.780Z,41.4
2017-12-21T02:41:35.718Z,42.1
2017-12-21T02:42:38.754Z,46.2
2017-12-21T02:43:40.962Z,43.4
2017-12-21T02:44:43.278Z,42.8
2017-12-21T02:45:45.596Z,43.1
2017-12-21T02:46:48.455Z,45.3
2017-12-21T02:47:50.688Z,48.6
2017-12-21T02:48:55.442Z,45.7
2017-12-21T02:49:57.591Z,45.4
2017-12-21T02:50:59.765Z,43.7
2017-12-21T02:52:02.097Z,43.9
2017-12-21T02:53:04.205Z,45.1
2017-12-21T02:54:06.357Z,49.0
2017-12-21T02:55:08.833Z,47.1
2017-12-21T02:56:10.831Z,48.0
2017-12-21T02:57:12.802Z,50.1
2017-12-21T02:58:14.825Z,47.7
2017-12-21T02:59:17.063Z,52.0
2017-12-21T03:00:19.130Z,51.5
2017-12-21T03:01:21.098Z,50.0
2017-12-21T03:02:23.066Z,48.7
2017-12-21T03:03:24.994Z,51.9
2017-12-21T03:04:27.077Z,48.9
2017-12-21T03:05:29.061Z,50.0
2017-12-21T03:06:31.137Z,50.7
2017-12-21T03:07:33.081Z,51.3
2017-12-21T03:08:35.124Z,49.6
2017-12-21T03:09:37.082Z,55.5
2017-12-21T03:10:39.080Z,53.4
2017-12-21T03:11:40.967Z,54.7
2017-12-21T03:12:43.959Z,52.1
2017-12-21T03:13:45.949Z,55.2
2017-12-21T03:14:47.936Z,53.6
2017-12-21T03:15:49.883Z,56.1
2017-12-21T03:16:58.425Z,55.6
2017-12-21T03:18:00.455Z,58.6
2017-12-21T03:19:02.354Z,61.2
2017-12-21T03:20:04.255Z,61.7
2017-12-21T03:21:07.038Z,63.6
2017-12-21T03:22:09.064Z,60.7
2017-12-21T03:23:17.909Z,65.2
2017-12-21T03:24:20.474Z,58.2
2017-12-21T03:25:22.502Z,63.4
2017-12-21T03:26:24.501Z,62.4
2017-12-21T03:27:26.532Z,66.8
2017-12-21T03:28:28.571Z,61.6
2017-12-21T03:29:30.659Z,66.0
2017-12-21T03:30:32.808Z,67.2
2017-12-21T03:31:35.181Z,60.5
2017-12-21T03:32:37.187Z,64.2
2017-12-21T03:33:39.152Z,56.8
2017-12-21T03:34:42.084Z,60.6
2017-12-21T03:35:44.132Z,57.3
2017-12-21T03:36:47.247Z,54.8
2017-12-21T03:37:50.008Z,55.5
2017-12-21T03:38:51.962Z,54.6
2017-12-21T03:39:53.949Z,55.6
2017-12-21T03:40:59.270Z,59.2
2017-12-21T03:42:01.976Z,55.4
2017-12-21T03:43:04.964Z,57.4
2017-12-21T03:44:06.937Z,59.2
2017-12-21T03:45:08.853Z,59.3
2017-12-21T03:47:20.033Z,56.3
2017-12-21T03:48:21.642Z,55.9
2017-12-21T03:50:14.004Z,56.5
2017-12-21T03:51:16.438Z,54.6
2017-12-21T03:53:15.663Z,58.1
2017-12-21T03:54:20.217Z,60.2
2017-12-21T03:55:21.835Z,64.2
2017-12-21T03:56:24.220Z,62.8
2017-12-21T03:57:25.854Z,60.8
2017-12-21T03:58:27.546Z,62.5
2017-12-21T03:59:30.166Z,61.4
2017-12-21T04:00:32.097Z,61.5
2017-12-21T04:01:34.154Z,58.6
2017-12-21T04:02:36.187Z,62.8
2017-12-21T04:03:38.276Z,63.9
2017-12-21T04:04:41.327Z,59.0
2017-12-21T04:05:43.531Z,63.5
2017-12-21T04:06:45.652Z,66.1
2017-12-21T04:07:47.635Z,60.9
2017-12-21T04:08:49.817Z,61.3
2017-12-21T04:09:52.996Z,63.9
2017-12-21T04:11:01.810Z,67.7
2017-12-21T04:12:04.122Z,57.4
2017-12-21T04:13:06.307Z,59.3
2017-12-21T04:14:08.633Z,61.7
2017-12-21T04:15:10.566Z,61.5
2017-12-21T04:16:12.625Z,61.3
2017-12-21T04:17:17.639Z,57.7
2017-12-21T04:18:20.644Z,55.2
2017-12-21T04:19:22.802Z,61.6
2017-12-21T04:20:24.845Z,59.4
2017-12-21T04:21:29.714Z,57.2
2017-12-21T04:22:31.758Z,63.9
2017-12-21T04:23:33.886Z,55.2
2017-12-21T04:24:35.914Z,55.3
2017-12-21T04:25:37.952Z,56.3
2017-12-21T04:26:41.143Z,56.6
2017-12-21T04:27:43.187Z,57.2
2017-12-21T04:28:45.276Z,54.7
2017-12-21T04:29:48.244Z,56.0
2017-12-21T04:30:50.239Z,52.8
2017-12-21T04:31:52.173Z,57.4
2017-12-21T04:32:55.164Z,53.9
2017-12-21T04:33:57.379Z,51.8
2017-12-21T04:34:59.568Z,51.9
2017-12-21T04:36:01.707Z,53.7
2017-12-21T04:37:03.936Z,53.5
2017-12-21T04:38:06.843Z,50.4
2017-12-21T04:39:08.890Z,52.6
2017-12-21T04:40:11.644Z,50.6
2017-12-21T04:41:16.616Z,54.5
2017-12-21T04:42:19.080Z,57.1
2017-12-21T04:43:21.096Z,50.3
2017-12-21T04:44:23.054Z,48.9
2017-12-21T04:45:25.584Z,54.7
2017-12-21T04:46:27.728Z,55.4
2017-12-21T04:47:29.802Z,54.6
2017-12-21T04:48:31.797Z,55.1
2017-12-21T04:49:33.840Z,55.0
2017-12-21T04:50:35.927Z,61.5
2017-12-21T04:51:37.798Z,57.0
2017-12-21T04:52:39.819Z,57.0
2017-12-21T04:53:41.972Z,57.9
2017-12-21T04:54:43.919Z,61.9
2017-12-21T04:55:46.795Z,58.6
2017-12-21T04:56:48.764Z,60.3
2017-12-21T04:57:50.721Z,61.7
2017-12-21T04:58:52.741Z,62.7
2017-12-21T04:59:54.723Z,64.7
2017-12-21T05:00:56.739Z,62.8
2017-12-21T05:01:58.712Z,58.1
2017-12-21T05:03:01.617Z,61.8
2017-12-21T05:04:03.659Z,66.9
2017-12-21T05:05:05.707Z,64.7
2017-12-21T05:06:07.818Z,71.2
2017-12-21T05:07:09.828Z,67.2
2017-12-21T05:08:11.882Z,66.1
2017-12-21T05:09:13.993Z,69.0
2017-12-21T05:10:16.083Z,68.2
2017-12-21T05:11:18.048Z,71.6
2017-12-21T05:12:20.028Z,71.1
2017-12-21T05:13:24.609Z,72.1
2017-12-21T05:14:27.334Z,67.9
2017-12-21T05:15:29.292Z,71.2
2017-12-21T05:16:31.262Z,72.8
2017-12-21T05:17:33.213Z,67.9
2017-12-21T05:18:35.061Z,75.1
2017-12-21T05:19:37.376Z,72.0
2017-12-21T05:20:39.342Z,71.6
2017-12-21T05:21:41.410Z,69.3
2017-12-21T05:22:44.219Z,66.1
2017-12-21T05:23:46.359Z,66.7
2017-12-21T05:24:48.486Z,64.7
2017-12-21T05:25:50.522Z,63.4
2017-12-21T05:26:52.518Z,65.9
2017-12-21T05:27:54.623Z,66.7
2017-12-21T05:28:56.563Z,67.1
2017-12-21T05:29:58.610Z,66.4
2017-12-21T05:31:00.482Z,67.1
2017-12-21T05:32:02.408Z,68.0
2017-12-21T05:33:04.392Z,75.1
2017-12-21T05:34:06.308Z,71.2
2017-12-21T05:35:08.286Z,66.0
2017-12-21T05:36:10.128Z,70.8
2017-12-21T05:37:15.115Z,71.0
2017-12-21T05:38:17.566Z,75.7
2017-12-21T05:39:19.542Z,76.6
2017-12-21T05:40:21.453Z,75.4
2017-12-21T05:41:23.947Z,72.1
2017-12-21T05:42:26.532Z,79.6
2017-12-21T05:43:28.503Z,74.3
2017-12-21T05:44:30.716Z,72.9
2017-12-21T05:45:32.778Z,70.0
2017-12-21T05:46:34.650Z,76.2
2017-12-21T05:47:36.464Z,71.6
2017-12-21T05:48:38.368Z,69.9
2017-12-21T05:49:40.259Z,74.0
2017-12-21T05:50:42.999Z,73.0
2017-12-21T05:51:44.817Z,74.4
2017-12-21T05:52:46.618Z,73.2
2017-12-21T05:53:48.527Z,72.7
2017-12-21T05:54:50.470Z,74.5
2017-12-21T05:55:52.325Z,70.9
2017-12-21T05:56:54.237Z,70.9
2017-12-21T05:57:56.001Z,70.6
2017-12-21T05:58:57.834Z,76.8
2017-12-21T06:03:35.943Z,78.9
2017-12-21T06:04:37.563Z,74.3
2017-12-21T06:06:29.849Z,75.3
2017-12-21T06:07:31.469Z,74.7
2017-12-21T06:09:23.216Z,71.0
2017-12-21T06:10:24.830Z,66.2
2017-12-21T06:12:16.592Z,76.3
2017-12-21T06:13:18.196Z,73.0
2017-12-21T06:14:19.821Z,75.9
2017-12-21T06:15:21.429Z,74.2
2017-12-21T06:16:23.082Z,71.4
2017-12-21T06:17:24.957Z,77.6
2017-12-21T06:18:27.367Z,78.1
2017-12-21T06:19:29.996Z,75.4
2017-12-21T06:20:32.427Z,73.9
2017-12-21T06:21:34.290Z,75.8
2017-12-21T06:22:36.200Z,72.8
2017-12-21T06:23:38.136Z,77.0
2017-12-21T06:24:40.785Z,81.2
2017-12-21T06:25:42.619Z,83.7
2017-12-21T06:26:44.462Z,75.9
2017-12-21T06:27:46.338Z,72.2
2017-12-21T06:28:48.283Z,79.6
2017-12-21T06:29:50.166Z,78.9
2017-12-21T06:30:54.901Z,71.2
2017-12-21T06:31:56.585Z,76.4
2017-12-21T06:32:58.411Z,75.4
2017-12-21T06:34:00.349Z,73.5
2017-12-21T06:35:02.652Z,78.1
2017-12-21T06:36:04.510Z,71.8
2017-12-21T06:37:06.846Z,71.4
2017-12-21T06:38:08.790Z,81.4
2017-12-21T06:39:10.652Z,72.4
2017-12-21T06:40:12.592Z,77.7
2017-12-21T06:41:14.575Z,83.2
2017-12-21T06:42:16.463Z,77.9
2017-12-21T06:43:18.353Z,78.7
2017-12-21T06:44:20.253Z,86.2
2017-12-21T06:45:22.126Z,86.1
2017-12-21T06:46:24.065Z,80.3
2017-12-21T06:47:27.600Z,84.9
2017-12-21T06:48:29.431Z,81.5
2017-12-21T06:49:31.341Z,86.1
2017-12-21T06:50:33.243Z,90.7
2017-12-21T06:51:35.204Z,85.2
2017-12-21T06:52:37.112Z,84.8
2017-12-21T06:53:39.091Z,84.2
2017-12-21T06:54:41.046Z,87.2
2017-12-21T06:55:42.972Z,87.1
2017-12-21T06:56:45.066Z,89.0
2017-12-21T06:57:46.931Z,81.9
2017-12-21T06:58:48.841Z,89.0
2017-12-21T06:59:50.903Z,80.4
2017-12-21T07:00:53.370Z,84.7
2017-12-21T07:01:55.312Z,85.9
2017-12-21T07:02:57.180Z,79.7
2017-12-21T07:03:59.883Z,86.1
2017-12-21T07:05:01.786Z,77.9
2017-12-21T07:06:03.716Z,83.7
2017-12-21T07:07:05.647Z,85.8
2017-12-21T07:08:07.506Z,84.9
2017-12-21T07:09:09.376Z,85.8
2017-12-21T07:10:11.326Z,85.7
2017-12-21T07:11:13.173Z,81.2
2017-12-21T07:12:14.949Z,78.8
2017-12-21T07:13:17.419Z,78.9
2017-12-21T07:14:19.344Z,79.5
2017-12-21T07:15:21.210Z,76.5
2017-12-21T07:16:23.110Z,83.4
2017-12-21T07:17:25.890Z,83.0
2017-12-21T07:18:27.745Z,82.2
2017-12-21T07:19:30.404Z,78.1
2017-12-21T07:20:32.268Z,79.0
2017-12-21T07:21:34.204Z,77.6
2017-12-21T07:22:37.129Z,81.6
2017-12-21T07:23:39.060Z,77.3
2017-12-21T07:24:42.411Z,78.5
2017-12-21T07:25:44.287Z,77.1
2017-12-21T07:26:46.203Z,74.8
2017-12-21T07:27:48.148Z,67.2
2017-12-21T07:28:51.038Z,74.3
2017-12-21T07:29:52.788Z,77.0
2017-12-21T07:30:55.390Z,76.5
2017-12-21T07:31:57.876Z,71.1
2017-12-21T07:32:59.817Z,72.6
2017-12-21T07:34:01.712Z,68.6
2017-12-21T07:35:03.589Z,70.9
2017-12-21T07:36:06.406Z,68.4
2017-12-21T07:37:08.303Z,68.3
2017-12-21T07:38:10.141Z,69.4
2017-12-21T07:39:12.980Z,71.4
2017-12-21T07:40:15.409Z,64.2
2017-12-21T07:41:17.347Z,65.5
2017-12-21T07:42:19.237Z,64.4
2017-12-21T07:43:21.120Z,62.8
2017-12-21T07:44:23.937Z,67.5
2017-12-21T07:45:26.636Z,65.0
2017-12-21T07:46:29.408Z,64.7
2017-12-21T07:47:31.260Z,69.1
2017-12-21T07:48:33.084Z,65.1
2017-12-21T07:49:35.008Z,64.4
2017-12-21T07:50:43.375Z,64.8
2017-12-21T07:51:48.429Z,63.9
2017-12-21T07:52:50.965Z,58.4
2017-12-21T07:53:53.584Z,61.4
2017-12-21T07:54:55.466Z,56.1
2017-12-21T07:55:57.426Z,58.7
2017-12-21T07:56:59.310Z,58.3
2017-12-21T07:58:01.298Z,58.5
2017-12-21T07:59:03.149Z,58.1
2017-12-21T08:00:05.268Z,62.2
2017-12-21T08:01:07.163Z,63.6
2017-12-21T08:02:10.454Z,61.3
2017-12-21T08:03:12.307Z,68.2
2017-12-21T08:04:14.445Z,57.7
2017-12-21T08:05:16.584Z,61.1
2017-12-21T08:06:18.477Z,61.5
2017-12-21T08:07:20.416Z,65.5
2017-12-21T08:08:22.507Z,64.9
2017-12-21T08:09:24.480Z,61.9
2017-12-21T08:10:26.428Z,64.0
2017-12-21T08:11:30.240Z,57.2
2017-12-21T08:12:34.958Z,60.5
2017-12-21T08:13:36.857Z,60.4
2017-12-21T08:14:38.704Z,64.6
2017-12-21T08:15:40.718Z,58.9
2017-12-21T08:16:42.913Z,59.5
2017-12-21T08:17:44.838Z,58.7
2017-12-21T08:18:46.778Z,59.1
2017-12-21T08:19:49.474Z,62.2
2017-12-21T08:20:51.372Z,60.9
2017-12-21T08:21:53.275Z,58.3
2017-12-21T08:22:55.144Z,53.9
2017-12-21T08:23:57.260Z,60.1
2017-12-21T08:24:59.163Z,55.9
2017-12-21T08:26:00.983Z,60.8
2017-12-21T08:27:02.869Z,53.9
2017-12-21T08:28:04.790Z,55.7
2017-12-21T08:29:06.691Z,55.1
2017-12-21T08:30:09.860Z,56.2
2017-12-21T08:31:11.747Z,52.7
2017-12-21T08:32:13.579Z,47.6
2017-12-21T08:33:16.068Z,55.3
2017-12-21T08:34:17.996Z,52.5
2017-12-21T08:35:20.380Z,52.7
2017-12-21T08:36:22.267Z,52.0
2017-12-21T08:37:24.173Z,54.0
2017-12-21T08:38:26.055Z,51.0
2017-12-21T08:39:28.946Z,48.4
2017-12-21T08:40:30.815Z,52.2
2017-12-21T08:41:35.410Z,55.0
2017-12-21T08:42:37.263Z,48.4
2017-12-21T08:43:39.444Z,52.0
2017-12-21T08:44:41.308Z,49.3
2017-12-21T08:45:43.203Z,48.9
2017-12-21T08:46:45.209Z,51.3
2017-12-21T08:47:47.034Z,47.1
2017-12-21T08:48:51.450Z,51.1
2017-12-21T08:49:53.937Z,46.6
2017-12-21T08:50:57.134Z,44.5
2017-12-21T08:51:59.308Z,46.5
2017-12-21T08:53:01.165Z,48.8
2017-12-21T08:54:03.069Z,45.5
2017-12-21T08:55:04.984Z,45.6
2017-12-21T08:56:07.401Z,49.2
2017-12-21T08:57:09.325Z,46.1
2017-12-21T08:58:11.223Z,46.7
2017-12-21T08:59:13.082Z,48.2
2017-12-21T09:00:14.955Z,45.6
2017-12-21T09:01:16.829Z,45.1
2017-12-21T09:02:18.653Z,40.1
2017-12-21T09:03:20.602Z,42.7
2017-12-21T09:04:22.497Z,37.5
2017-12-21T09:05:24.833Z,38.7
2017-12-21T09:06:26.785Z,41.0
2017-12-21T09:07:28.586Z,40.9
2017-12-21T09:08:30.441Z,37.3
2017-12-21T09:09:32.356Z,39.5
2017-12-21T09:10:34.312Z,39.0
2017-12-21T09:11:36.179Z,36.6
2017-12-21T09:12:38.090Z,35.1
2017-12-21T09:13:39.927Z,36.1
2017-12-21T09:14:41.862Z,33.4
2017-12-21T09:15:43.688Z,33.1
2017-12-21T09:16:45.625Z,33.4
2017-12-21T09:17:47.610Z,33.9
2017-12-21T09:18:49.524Z,34.3
2017-12-21T09:19:51.519Z,36.7
2017-12-21T09:20:53.398Z,37.5
2017-12-21T09:21:55.318Z,36.5
2017-12-21T09:22:57.260Z,34.1
2017-12-21T09:23:59.965Z,35.4
2017-12-21T09:25:01.804Z,40.5
2017-12-21T09:26:03.732Z,38.0
2017-12-21T09:27:05.661Z,37.8
2017-12-21T09:28:07.529Z,33.3
2017-12-21T09:29:09.415Z,34.0
2017-12-21T09:30:11.954Z,37.4
2017-12-21T09:31:13.918Z,33.5
2017-12-21T09:32:15.829Z,34.7
2017-12-21T09:33:17.732Z,34.3
2017-12-21T09:34:20.683Z,36.9
2017-12-21T09:35:23.337Z,37.9
2017-12-21T09:36:25.941Z,37.8
2017-12-21T09:37:27.898Z,39.5
2017-12-21T09:38:29.829Z,41.4
2017-12-21T09:39:31.689Z,35.3
2017-12-21T09:40:33.534Z,40.5
2017-12-21T09:41:41.946Z,39.7
2017-12-21T09:42:43.790Z,42.6
2017-12-21T09:43:45.776Z,38.0
2017-12-21T09:44:47.698Z,38.5
2017-12-21T09:45:49.548Z,39.3
2017-12-21T09:46:51.394Z,38.9
2017-12-21T09:47:53.298Z,39.0
2017-12-21T09:48:55.927Z,36.8
2017-12-21T09:49:58.608Z,43.6
2017-12-21T09:51:01.460Z,38.2
2017-12-21T09:52:03.362Z,37.7
2017-12-21T09:53:05.929Z,38.7
2017-12-21T09:54:07.819Z,37.2
2017-12-21T09:55:09.720Z,37.9
2017-12-21T09:56:12.618Z,39.7
2017-12-21T09:57:15.418Z,39.8
2017-12-21T09:58:17.344Z,41.5
2017-12-21T09:59:19.603Z,40.2
2017-12-21T10:00:23.446Z,40.9
2017-12-21T10:01:25.518Z,41.6
2017-12-21T10:02:27.374Z,40.3
2017-12-21T10:03:29.318Z,40.1
2017-12-21T10:04:31.160Z,37.0
2017-12-21T10:05:33.003Z,37.5
2017-12-21T10:06:34.906Z,42.3
2017-12-21T10:07:37.057Z,38.3
2017-12-21T10:08:39.051Z,38.3
2017-12-21T10:09:40.954Z,37.0
2017-12-21T10:10:43.665Z,36.8
2017-12-21T10:11:45.570Z,40.4
2017-12-21T10:12:47.468Z,39.1
2017-12-21T10:13:49.315Z,40.8
2017-12-21T10:14:51.225Z,41.0
2017-12-21T10:15:53.156Z,35.7
2017-12-21T10:16:55.197Z,40.9
2017-12-21T10:17:57.156Z,40.8
2017-12-21T10:18:59.107Z,42.4
2017-12-21T10:20:00.974Z,40.6
2017-12-21T10:21:02.849Z,37.1
2017-12-21T10:22:05.554Z,41.3
2017-12-21T10:23:07.522Z,37.5
2017-12-21T10:24:09.517Z,38.1
2017-12-21T10:25:11.521Z,38.1
2017-12-21T10:26:13.734Z,38.7
2017-12-21T10:27:16.175Z,38.4
2017-12-21T10:28:19.205Z,37.5
2017-12-21T10:29:21.398Z,36.2
2017-12-21T10:30:23.708Z,36.4
2017-12-21T10:31:26.731Z,32.0
2017-12-21T10:32:28.803Z,34.2
2017-12-21T10:33:30.982Z,34.0
2017-12-21T10:34:33.068Z,35.5
2017-12-21T10:35:34.930Z,37.0
2017-12-21T10:36:37.987Z,37.7
2017-12-21T10:37:40.935Z,36.5
2017-12-21T10:38:42.846Z,36.0
2017-12-21T10:39:44.969Z,40.6
2017-12-21T10:40:49.602Z,38.4
2017-12-21T10:41:52.540Z,35.9
2017-12-21T10:42:54.560Z,34.1
2017-12-21T10:43:57.294Z,38.2
2017-12-21T10:45:00.796Z,34.0
2017-12-21T10:46:03.068Z,34.9
2017-12-21T10:47:05.056Z,32.6
2017-12-21T10:48:07.122Z,34.7
2017-12-21T10:49:09.120Z,33.2
2017-12-21T10:50:11.287Z,33.2
2017-12-21T10:51:13.222Z,32.7
2017-12-21T10:52:16.508Z,30.8
2017-12-21T10:53:18.443Z,33.3
2017-12-21T10:54:20.359Z,34.6
2017-12-21T10:55:22.236Z,32.9
2017-12-21T10:56:24.146Z,33.5
2017-12-21T10:57:26.476Z,33.9
2017-12-21T10:58:28.404Z,34.0
2017-12-21T10:59:30.462Z,33.1
2017-12-21T11:00:32.708Z,30.7
2017-12-21T11:01:35.330Z,30.6
2017-12-21T11:02:37.236Z,32.1
2017-12-21T11:03:39.165Z,31.5
2017-12-21T11:04:42.048Z,30.9
2017-12-21T11:05:44.266Z,28.6
2017-12-21T11:06:46.209Z,27.4
2017-12-21T11:07:48.255Z,29.0
2017-12-21T11:08:50.446Z,29.6
2017-12-21T11:09:52.362Z,30.8
2017-12-21T11:10:55.190Z,29.9
2017-12-21T11:11:57.361Z,30.0
2017-12-21T11:13:00.072Z,30.6
2017-12-21T11:14:03.090Z,31.0
2017-12-21T11:15:05.065Z,29.9
2017-12-21T11:16:09.514Z,31.7
2017-12-21T11:17:11.418Z,32.7
2017-12-21T11:18:13.275Z,31.0
2017-12-21T11:19:15.278Z,28.5
2017-12-21T11:20:17.326Z,28.6
2017-12-21T11:21:19.333Z,29.6
2017-12-21T11:22:21.321Z,28.7
2017-12-21T11:23:23.283Z,29.0
2017-12-21T11:24:25.300Z,29.2
2017-12-21T11:25:27.237Z,27.2
2017-12-21T11:26:29.129Z,26.2
2017-12-21T11:27:31.076Z,27.2
2017-12-21T11:28:33.780Z,26.6
2017-12-21T11:29:35.718Z,27.6
2017-12-21T11:30:37.710Z,25.5
2017-12-21T11:31:39.604Z,27.2
2017-12-21T11:32:42.445Z,26.3
2017-12-21T11:33:44.398Z,27.2
2017-12-21T11:34:46.481Z,23.8
2017-12-21T11:35:48.411Z,26.4
2017-12-21T11:36:50.503Z,26.6
2017-12-21T11:37:52.980Z,27.5
2017-12-21T11:38:54.980Z,26.6
2017-12-21T11:39:59.811Z,27.1
2017-12-21T11:41:01.713Z,26.3
2017-12-21T11:42:03.695Z,27.3
2017-12-21T11:43:05.680Z,27.9
2017-12-21T11:44:07.677Z,27.1
2017-12-21T11:45:09.749Z,27.1
2017-12-21T11:46:11.729Z,27.5
2017-12-21T11:47:14.119Z,24.6
2017-12-21T11:48:16.088Z,27.4
2017-12-21T11:49:17.992Z,26.0
2017-12-21T11:50:19.949Z,27.4
2017-12-21T11:51:22.522Z,24.4
2017-12-21T11:52:24.515Z,27.6
2017-12-21T11:53:27.048Z,23.6
2017-12-21T11:54:28.856Z,22.5
2017-12-21T11:55:31.284Z,23.7
2017-12-21T11:56:33.204Z,24.8
2017-12-21T11:57:35.218Z,24.1
2017-12-21T11:58:37.171Z,22.8
2017-12-21T11:59:39.142Z,25.1
2017-12-21T12:00:41.070Z,22.7
2017-12-21T12:01:43.075Z,20.7
2017-12-21T12:02:45.412Z,22.3
2017-12-21T12:03:48.043Z,23.6
2017-12-21T12:04:50.074Z,21.9
2017-12-21T12:05:52.479Z,23.3
2017-12-21T12:06:55.150Z,23.0
2017-12-21T12:07:58.257Z,23.4
2017-12-21T12:09:00.239Z,23.4
2017-12-21T12:10:02.188Z,21.2
2017-12-21T12:11:04.137Z,23.6
2017-12-21T12:12:06.362Z,20.8
2017-12-21T12:13:09.051Z,20.3
2017-12-21T12:14:11.025Z,22.3
2017-12-21T12:15:13.179Z,24.7
2017-12-21T12:16:16.112Z,21.9
2017-12-21T12:17:18.217Z,23.9
2017-12-21T12:18:20.168Z,23.1
2017-12-21T12:19:22.164Z,22.5
2017-12-21T12:20:24.338Z,21.9
2017-12-21T12:21:28.567Z,20.6
2017-12-21T12:22:31.015Z,22.3
2017-12-21T12:23:34.591Z,23.0
2017-12-21T12:24:37.125Z,25.3
2017-12-21T12:25:40.404Z,25.2
2017-12-21T12:26:42.553Z,25.3
2017-12-21T12:27:45.298Z,24.1
2017-12-21T12:28:47.403Z,26.5
2017-12-21T12:29:50.290Z,26.0
2017-12-21T12:30:52.485Z,28.3
2017-12-21T12:31:54.633Z,25.9
2017-12-21T12:32:56.541Z,25.2
2017-12-21T12:33:58.535Z,27.4
2017-12-21T12:35:00.807Z,25.2
2017-12-21T12:36:04.001Z,27.2
2017-12-21T12:37:06.629Z,28.9
2017-12-21T12:38:08.950Z,27.9
2017-12-21T12:39:11.311Z,26.8
2017-12-21T12:40:13.307Z,29.0
2017-12-21T12:41:18.372Z,28.8
2017-12-21T12:42:20.704Z,27.2
2017-12-21T12:43:22.897Z,28.6
2017-12-21T12:44:25.042Z,30.3
2017-12-21T12:45:27.138Z,30.5
2017-12-21T12:46:29.456Z,29.7
2017-12-21T12:47:31.494Z,29.7
2017-12-21T12:48:34.197Z,27.7
2017-12-21T12:49:37.331Z,30.6
2017-12-21T12:50:40.109Z,33.4
2017-12-21T12:51:43.222Z,31.6
2017-12-21T12:52:45.247Z,28.8
2017-12-21T12:53:48.138Z,29.8
2017-12-21T12:54:50.022Z,30.3
2017-12-21T12:55:52.909Z,27.2
2017-12-21T12:56:54.776Z,30.8
2017-12-21T12:57:57.005Z,27.6
2017-12-21T12:58:58.732Z,27.8
2017-12-21T13:00:01.597Z,25.1
2017-12-21T13:01:04.121Z,26.8
2017-12-21T13:02:08.405Z,28.6
2017-12-21T13:03:10.425Z,25.5
2017-12-21T13:04:12.992Z,27.8
2017-12-21T13:05:14.765Z,27.9
2017-12-21T13:06:16.538Z,26.2
2017-12-21T13:07:18.305Z,26.4
2017-12-21T13:08:20.075Z,24.1
2017-12-21T13:09:22.218Z,26.3
2017-12-21T13:10:23.977Z,26.6
2017-12-21T13:11:25.743Z,26.2
2017-12-21T13:12:27.502Z,26.8
2017-12-21T13:13:29.253Z,23.6
2017-12-21T13:14:30.970Z,26.1
2017-12-21T13:15:32.734Z,24.2
2017-12-21T13:16:34.492Z,25.1
2017-12-21T13:17:36.316Z,24.3
2017-12-21T13:18:39.075Z,24.8
2017-12-21T13:19:41.404Z,25.0
2017-12-21T13:20:43.226Z,26.5
2017-12-21T13:21:45.022Z,25.8
2017-12-21T13:22:46.791Z,28.7
2017-12-21T13:23:48.518Z,30.2
2017-12-21T13:24:50.309Z,29.0
2017-12-21T13:25:52.449Z,29.4
2017-12-21T13:26:54.160Z,30.3
2017-12-21T13:27:56.050Z,29.3
2017-12-21T13:28:58.149Z,29.2
2017-12-21T13:30:02.915Z,29.3
2017-12-21T13:31:04.733Z,28.9
2017-12-21T13:32:06.511Z,30.4
2017-12-21T13:33:08.314Z,29.5
2017-12-21T13:34:10.162Z,29.2
2017-12-21T13:35:11.853Z,29.1
2017-12-21T13:36:13.628Z,25.8
2017-12-21T13:37:15.948Z,28.3
2017-12-21T13:38:18.136Z,27.3
2017-12-21T13:39:19.840Z,27.6
2017-12-21T13:40:21.616Z,27.7
2017-12-21T13:41:23.946Z,27.2
2017-12-21T13:42:25.738Z,25.4
2017-12-21T13:43:27.503Z,26.2
2017-12-21T13:44:29.868Z,29.9
2017-12-21T13:45:32.507Z,26.4
2017-12-21T13:46:34.766Z,26.4
2017-12-21T13:47:36.499Z,27.5
2017-12-21T13:48:38.541Z,26.3
2017-12-21T13:49:40.399Z,28.9
2017-12-21T13:50:42.904Z,26.3
2017-12-21T13:51:44.679Z,26.4
2017-12-21T13:52:46.515Z,22.6
2017-12-21T13:53:49.022Z,24.1
2017-12-21T13:54:50.711Z,24.3
2017-12-21T13:55:52.579Z,23.4
2017-12-21T13:56:54.550Z,21.4
2017-12-21T13:57:56.586Z,21.8